Five Islands, Maine
Current Conditions -  °F | °C
As of 12:53 AM on Saturday 25 Oct 2014 (Local Time) from KIWI Reporting Station
Overcast Overcast  
Wind Chill: 47°   Ceiling: 4600
Heat Index: 47°   Visibility: 10mi
Dew Point: 43°   Wind: 0mph
Humidity: 86%   Direction: NA
Pressure: 29.7"   Gusts: NA
Location:  43.8074°N, 69.7472°W
Report Text: KIWI 250453Z AUTO 00000KT 10SM SCT038 OVC046 08/06 A2970 RMK AO2 SLP056 T00830061 401000083
Loading
Personal Weather Stations






























Interactive Weather Map
Tropical Storm Tracking
New forecast layout! Learn more

10-Day Weather Forecast

Advertisements
Track Severe Weather on mobile